sensor_id;sensor_type;location;lat;lon;timestamp;temperature;humidity
790;DHT22;378;48.844;9.156;2024-03-23T00:55:35;11.30;99.90
790;DHT22;378;48.844;9.156;2024-03-23T00:58:00;11.30;99.90
790;DHT22;378;48.844;9.156;2024-03-23T01:00:26;11.20;99.90
790;DHT22;378;48.844;9.156;2024-03-23T01:02:52;11.30;99.90
790;DHT22;378;48.844;9.156;2024-03-23T01:05:18;11.20;99.90
790;DHT22;378;48.844;9.156;2024-03-23T01:07:44;11.30;99.90
790;DHT22;378;48.844;9.156;2024-03-23T01:10:10;11.20;99.90
790;DHT22;378;48.844;9.156;2024-03-23T01:12:36;11.30;99.90
790;DHT22;378;48.844;9.156;2024-03-23T01:15:02;11.30;99.90
790;DHT22;378;48.844;9.156;2024-03-23T01:17:30;11.30;99.90
790;DHT22;378;48.844;9.156;2024-03-23T01:19:56;11.40;99.90
790;DHT22;378;48.844;9.156;2024-03-23T01:22:22;11.50;99.90
790;DHT22;378;48.844;9.156;2024-03-23T01:24:48;11.50;99.90
790;DHT22;378;48.844;9.156;2024-03-23T01:27:14;11.60;99.90
790;DHT22;378;48.844;9.156;2024-03-23T01:29:40;11.60;99.90
790;DHT22;378;48.844;9.156;2024-03-23T01:32:06;11.70;99.90
790;DHT22;378;48.844;9.156;2024-03-23T01:34:32;11.80;99.90
790;DHT22;378;48.844;9.156;2024-03-23T01:36:58;11.90;99.90
790;DHT22;378;48.844;9.156;2024-03-23T01:39:25;11.90;99.90
790;DHT22;378;48.844;9.156;2024-03-23T01:41:50;12.00;99.90
790;DHT22;378;48.844;9.156;2024-03-23T01:44:17;12.00;99.90
790;DHT22;378;48.844;9.156;2024-03-23T01:46:44;12.10;99.90
790;DHT22;378;48.844;9.156;2024-03-23T01:49:10;12.10;99.90
790;DHT22;378;48.844;9.156;2024-03-23T01:51:36;12.10;99.90
790;DHT22;378;48.844;9.156;2024-03-23T01:54:03;12.10;99.90
790;DHT22;378;48.844;9.156;2024-03-23T01:56:35;12.20;99.90
790;DHT22;378;48.844;9.156;2024-03-23T01:59:05;12.20;99.90
790;DHT22;378;48.844;9.156;2024-03-23T02:01:32;12.30;99.90
790;DHT22;378;48.844;9.156;2024-03-23T02:03:58;12.30;99.90
790;DHT22;378;48.844;9.156;2024-03-23T02:06:24;12.40;99.90
790;DHT22;378;48.844;9.156;2024-03-23T02:08:51;12.40;99.90
790;DHT22;378;48.844;9.156;2024-03-23T02:11:17;12.40;99.90
790;DHT22;378;48.844;9.156;2024-03-23T02:13:43;12.40;99.90
790;DHT22;378;48.844;9.156;2024-03-23T02:16:08;12.40;99.90
790;DHT22;378;48.844;9.156;2024-03-23T02:18:34;12.40;99.90
790;DHT22;378;48.844;9.156;2024-03-23T02:21:00;12.40;99.90
790;DHT22;378;48.844;9.156;2024-03-23T02:23:26;12.40;99.90
790;DHT22;378;48.844;9.156;2024-03-23T02:25:52;12.30;99.90
790;DHT22;378;48.844;9.156;2024-03-23T02:28:21;12.30;99.90
790;DHT22;378;48.844;9.156;2024-03-23T02:30:51;12.40;99.90
790;DHT22;378;48.844;9.156;2024-03-23T02:33:17;12.40;99.90
790;DHT22;378;48.844;9.156;2024-03-23T02:35:44;12.40;99.90
790;DHT22;378;48.844;9.156;2024-03-23T02:38:10;12.30;99.90
790;DHT22;378;48.844;9.156;2024-03-23T02:40:36;12.30;99.90
790;DHT22;378;48.844;9.156;2024-03-23T02:43:03;12.30;99.90
790;DHT22;378;48.844;9.156;2024-03-23T02:45:29;12.30;99.90
790;DHT22;378;48.844;9.156;2024-03-23T02:47:55;12.30;99.90
790;DHT22;378;48.844;9.156;2024-03-23T02:50:22;12.30;99.90
790;DHT22;378;48.844;9.156;2024-03-23T02:52:48;12.30;99.90
790;DHT22;378;48.844;9.156;2024-03-23T02:55:14;12.20;99.90
790;DHT22;378;48.844;9.156;2024-03-23T02:57:41;12.20;99.90
790;DHT22;378;48.844;9.156;2024-03-23T03:00:07;12.20;99.90
790;DHT22;378;48.844;9.156;2024-03-23T03:02:33;12.10;99.90
790;DHT22;378;48.844;9.156;2024-03-23T03:04:59;12.10;99.90
790;DHT22;378;48.844;9.156;2024-03-23T03:07:25;12.10;99.90
790;DHT22;378;48.844;9.156;2024-03-23T03:09:51;12.00;99.90
790;DHT22;378;48.844;9.156;2024-03-23T03:12:17;12.00;99.90
790;DHT22;378;48.844;9.156;2024-03-23T03:14:43;12.00;99.90
790;DHT22;378;48.844;9.156;2024-03-23T03:17:09;12.00;99.90
790;DHT22;378;48.844;9.156;2024-03-23T03:19:34;11.90;99.90
790;DHT22;378;48.844;9.156;2024-03-23T03:22:00;11.90;99.90
790;DHT22;378;48.844;9.156;2024-03-23T03:24:26;11.90;99.90
790;DHT22;378;48.844;9.156;2024-03-23T03:26:52;11.80;99.90
790;DHT22;378;48.844;9.156;2024-03-23T03:29:18;11.80;99.90
790;DHT22;378;48.844;9.156;2024-03-23T03:31:44;11.80;99.90
790;DHT22;378;48.844;9.156;2024-03-23T03:34:10;11.80;99.90
790;DHT22;378;48.844;9.156;2024-03-23T03:36:36;11.80;99.90
790;DHT22;378;48.844;9.156;2024-03-23T03:39:02;11.70;99.90
790;DHT22;378;48.844;9.156;2024-03-23T03:41:32;11.70;99.90
790;DHT22;378;48.844;9.156;2024-03-23T03:43:58;11.70;99.90
790;DHT22;378;48.844;9.156;2024-03-23T03:46:28;11.70;99.90
790;DHT22;378;48.844;9.156;2024-03-23T03:48:54;11.60;99.90
790;DHT22;378;48.844;9.156;2024-03-23T03:51:20;11.50;99.90
790;DHT22;378;48.844;9.156;2024-03-23T03:53:46;11.50;99.90
790;DHT22;378;48.844;9.156;2024-03-23T03:56:12;11.40;99.90
790;DHT22;378;48.844;9.156;2024-03-23T03:58:38;11.40;99.90
790;DHT22;378;48.844;9.156;2024-03-23T04:01:05;11.40;99.90
790;DHT22;378;48.844;9.156;2024-03-23T04:03:31;11.40;99.90
790;DHT22;378;48.844;9.156;2024-03-23T04:05:57;11.40;99.90
790;DHT22;378;48.844;9.156;2024-03-23T04:08:24;11.40;99.90
790;DHT22;378;48.844;9.156;2024-03-23T04:10:50;11.40;99.90
790;DHT22;378;48.844;9.156;2024-03-23T04:13:15;11.30;99.90
790;DHT22;378;48.844;9.156;2024-03-23T04:15:42;11.40;99.90
790;DHT22;378;48.844;9.156;2024-03-23T04:18:08;11.30;99.90
790;DHT22;378;48.844;9.156;2024-03-23T04:20:34;11.30;99.90
790;DHT22;378;48.844;9.156;2024-03-23T04:22:59;11.30;99.90
790;DHT22;378;48.844;9.156;2024-03-23T04:25:25;11.40;99.90
790;DHT22;378;48.844;9.156;2024-03-23T04:27:51;11.50;99.90
790;DHT22;378;48.844;9.156;2024-03-23T04:30:17;11.50;99.90
790;DHT22;378;48.844;9.156;2024-03-23T04:32:43;11.20;99.90
790;DHT22;378;48.844;9.156;2024-03-23T04:35:09;10.80;99.90
790;DHT22;378;48.844;9.156;2024-03-23T04:37:36;10.50;99.90
790;DHT22;378;48.844;9.156;2024-03-23T04:40:03;10.20;99.90
790;DHT22;378;48.844;9.156;2024-03-23T04:42:29;10.00;99.90
790;DHT22;378;48.844;9.156;2024-03-23T04:44:56;9.90;99.90
790;DHT22;378;48.844;9.156;2024-03-23T04:47:22;9.80;99.90
790;DHT22;378;48.844;9.156;2024-03-23T04:49:48;9.80;99.90
790;DHT22;378;48.844;9.156;2024-03-23T04:52:16;9.70;99.90
790;DHT22;378;48.844;9.156;2024-03-23T04:54:42;9.70;99.90
790;DHT22;378;48.844;9.156;2024-03-23T04:57:08;9.60;99.90
790;DHT22;378;48.844;9.156;2024-03-23T04:59:34;9.70;99.90
790;DHT22;378;48.844;9.156;2024-03-23T05:02:00;9.80;99.90
790;DHT22;378;48.844;9.156;2024-03-23T05:04:27;9.80;99.90
790;DHT22;378;48.844;9.156;2024-03-23T05:06:53;9.70;99.90
790;DHT22;378;48.844;9.156;2024-03-23T05:09:19;9.70;99.90
790;DHT22;378;48.844;9.156;2024-03-23T05:11:45;9.70;99.90
790;DHT22;378;48.844;9.156;2024-03-23T05:14:13;9.70;99.90
790;DHT22;378;48.844;9.156;2024-03-23T05:16:39;9.60;99.90
790;DHT22;378;48.844;9.156;2024-03-23T05:19:05;9.60;99.90
790;DHT22;378;48.844;9.156;2024-03-23T05:21:31;9.50;99.90
790;DHT22;378;48.844;9.156;2024-03-23T05:23:57;9.50;99.90
790;DHT22;378;48.844;9.156;2024-03-23T05:26:23;9.40;99.90
790;DHT22;378;48.844;9.156;2024-03-23T05:28:49;9.50;99.90
790;DHT22;378;48.844;9.156;2024-03-23T05:31:25;9.40;99.90
790;DHT22;378;48.844;9.156;2024-03-23T05:33:51;9.40;99.90
790;DHT22;378;48.844;9.156;2024-03-23T05:36:17;9.40;99.90
790;DHT22;378;48.844;9.156;2024-03-23T05:38:43;9.40;99.90
790;DHT22;378;48.844;9.156;2024-03-23T05:41:09;9.30;99.90
790;DHT22;378;48.844;9.156;2024-03-23T05:43:35;9.30;99.90
790;DHT22;378;48.844;9.156;2024-03-23T05:46:01;9.30;99.90
790;DHT22;378;48.844;9.156;2024-03-23T05:48:28;9.30;99.90
790;DHT22;378;48.844;9.156;2024-03-23T05:50:56;9.20;99.90
790;DHT22;378;48.844;9.156;2024-03-23T05:53:23;9.20;99.90
790;DHT22;378;48.844;9.156;2024-03-23T05:56:00;9.10;99.90
790;DHT22;378;48.844;9.156;2024-03-23T05:58:29;9.00;99.90
790;DHT22;378;48.844;9.156;2024-03-23T06:00:59;8.90;99.90
790;DHT22;378;48.844;9.156;2024-03-23T06:03:29;8.80;99.90
790;DHT22;378;48.844;9.156;2024-03-23T06:05:55;8.80;99.90
790;DHT22;378;48.844;9.156;2024-03-23T06:08:22;8.70;99.90
790;DHT22;378;48.844;9.156;2024-03-23T06:10:48;8.60;99.90
790;DHT22;378;48.844;9.156;2024-03-23T06:13:16;8.50;99.90
790;DHT22;378;48.844;9.156;2024-03-23T06:15:42;8.40;99.90
790;DHT22;378;48.844;9.156;2024-03-23T06:18:08;8.40;99.90
790;DHT22;378;48.844;9.156;2024-03-23T06:20:37;8.30;99.90
790;DHT22;378;48.844;9.156;2024-03-23T06:23:15;8.30;99.90
790;DHT22;378;48.844;9.156;2024-03-23T06:25:42;8.30;99.90
790;DHT22;378;48.844;9.156;2024-03-23T06:28:08;8.20;99.90
790;DHT22;378;48.844;9.156;2024-03-23T06:30:34;8.20;99.90
790;DHT22;378;48.844;9.156;2024-03-23T06:33:00;8.20;99.90
790;DHT22;378;48.844;9.156;2024-03-23T06:35:26;8.20;99.90
790;DHT22;378;48.844;9.156;2024-03-23T06:37:52;8.10;99.90
790;DHT22;378;48.844;9.156;2024-03-23T06:40:18;8.10;99.90
790;DHT22;378;48.844;9.156;2024-03-23T06:42:44;8.10;99.90
790;DHT22;378;48.844;9.156;2024-03-23T06:45:10;8.10;99.90
790;DHT22;378;48.844;9.156;2024-03-23T06:47:35;8.10;99.90
790;DHT22;378;48.844;9.156;2024-03-23T06:50:03;8.00;99.90
790;DHT22;378;48.844;9.156;2024-03-23T06:52:30;8.00;99.90
790;DHT22;378;48.844;9.156;2024-03-23T06:54:56;7.90;99.90
790;DHT22;378;48.844;9.156;2024-03-23T06:57:22;7.90;99.90
790;DHT22;378;48.844;9.156;2024-03-23T06:59:48;7.90;99.90
790;DHT22;378;48.844;9.156;2024-03-23T07:02:14;7.90;99.90
790;DHT22;378;48.844;9.156;2024-03-23T07:04:41;7.80;99.90
790;DHT22;378;48.844;9.156;2024-03-23T07:07:10;7.90;99.90
790;DHT22;378;48.844;9.156;2024-03-23T07:09:37;7.90;99.90
790;DHT22;378;48.844;9.156;2024-03-23T07:12:03;7.90;99.90
790;DHT22;378;48.844;9.156;2024-03-23T07:14:30;8.00;99.90
790;DHT22;378;48.844;9.156;2024-03-23T07:16:56;7.90;99.90
790;DHT22;378;48.844;9.156;2024-03-23T07:19:22;7.90;99.90
790;DHT22;378;48.844;9.156;2024-03-23T07:21:49;7.90;99.90
790;DHT22;378;48.844;9.156;2024-03-23T07:24:15;8.00;99.90
790;DHT22;378;48.844;9.156;2024-03-23T07:26:41;8.10;99.90
790;DHT22;378;48.844;9.156;2024-03-23T07:29:06;8.10;99.90
790;DHT22;378;48.844;9.156;2024-03-23T07:31:33;8.10;99.90
790;DHT22;378;48.844;9.156;2024-03-23T07:33:58;8.10;99.90
790;DHT22;378;48.844;9.156;2024-03-23T07:36:24;8.20;99.90
790;DHT22;378;48.844;9.156;2024-03-23T07:38:50;8.20;99.90
790;DHT22;378;48.844;9.156;2024-03-23T07:41:18;8.20;99.90
790;DHT22;378;48.844;9.156;2024-03-23T07:43:45;8.20;99.90
790;DHT22;378;48.844;9.156;2024-03-23T07:46:11;8.20;99.90
790;DHT22;378;48.844;9.156;2024-03-23T07:48:38;8.10;99.90
790;DHT22;378;48.844;9.156;2024-03-23T07:51:10;8.10;99.90
790;DHT22;378;48.844;9.156;2024-03-23T07:53:37;8.10;99.90
790;DHT22;378;48.844;9.156;2024-03-23T07:56:06;8.10;99.90
790;DHT22;378;48.844;9.156;2024-03-23T07:58:32;8.10;99.90
790;DHT22;378;48.844;9.156;2024-03-23T08:01:15;8.00;99.90
790;DHT22;378;48.844;9.156;2024-03-23T08:03:45;7.80;99.90
790;DHT22;378;48.844;9.156;2024-03-23T08:08:38;7.70;99.90
790;DHT22;378;48.844;9.156;2024-03-23T08:11:05;7.60;99.90
790;DHT22;378;48.844;9.156;2024-03-23T08:13:31;7.60;99.90
790;DHT22;378;48.844;9.156;2024-03-23T08:15:58;7.70;99.90
790;DHT22;378;48.844;9.156;2024-03-23T08:18:24;7.60;99.90
790;DHT22;378;48.844;9.156;2024-03-23T08:23:27;7.40;99.90
790;DHT22;378;48.844;9.156;2024-03-23T08:26:00;7.30;99.90
790;DHT22;378;48.844;9.156;2024-03-23T08:28:27;7.20;99.90
790;DHT22;378;48.844;9.156;2024-03-23T08:30:54;7.30;99.90
790;DHT22;378;48.844;9.156;2024-03-23T08:33:20;7.20;99.90
790;DHT22;378;48.844;9.156;2024-03-23T08:36:06;7.20;99.90
790;DHT22;378;48.844;9.156;2024-03-23T08:38:32;7.10;99.90
790;DHT22;378;48.844;9.156;2024-03-23T08:40:59;7.20;99.90
790;DHT22;378;48.844;9.156;2024-03-23T08:43:26;7.20;99.90
790;DHT22;378;48.844;9.156;2024-03-23T08:45:53;7.20;99.90
790;DHT22;378;48.844;9.156;2024-03-23T08:48:19;7.30;99.90
790;DHT22;378;48.844;9.156;2024-03-23T08:51:00;7.30;99.90
790;DHT22;378;48.844;9.156;2024-03-23T08:53:28;7.20;99.90
790;DHT22;378;48.844;9.156;2024-03-23T08:55:58;7.20;99.90
790;DHT22;378;48.844;9.156;2024-03-23T08:58:25;7.10;99.90
790;DHT22;378;48.844;9.156;2024-03-23T09:00:55;7.00;99.90
790;DHT22;378;48.844;9.156;2024-03-23T09:03:25;6.90;99.90
790;DHT22;378;48.844;9.156;2024-03-23T09:05:52;6.80;99.90
790;DHT22;378;48.844;9.156;2024-03-23T09:08:19;6.80;99.90
790;DHT22;378;48.844;9.156;2024-03-23T09:10:44;6.80;99.90
790;DHT22;378;48.844;9.156;2024-03-23T09:13:10;6.80;99.90
790;DHT22;378;48.844;9.156;2024-03-23T09:15:44;6.90;99.90
790;DHT22;378;48.844;9.156;2024-03-23T09:18:10;6.90;99.90
790;DHT22;378;48.844;9.156;2024-03-23T09:20:36;6.90;99.90
790;DHT22;378;48.844;9.156;2024-03-23T09:23:02;6.90;99.90
790;DHT22;378;48.844;9.156;2024-03-23T09:25:28;7.00;99.90
790;DHT22;378;48.844;9.156;2024-03-23T09:27:54;6.90;99.90
790;DHT22;378;48.844;9.156;2024-03-23T09:30:20;6.90;99.90
790;DHT22;378;48.844;9.156;2024-03-23T09:32:46;6.90;99.90
790;DHT22;378;48.844;9.156;2024-03-23T09:35:12;7.00;99.90
790;DHT22;378;48.844;9.156;2024-03-23T09:37:41;7.00;99.90
790;DHT22;378;48.844;9.156;2024-03-23T09:40:10;7.20;99.90
790;DHT22;378;48.844;9.156;2024-03-23T09:42:42;7.30;99.90
790;DHT22;378;48.844;9.156;2024-03-23T09:45:27;7.20;99.90
790;DHT22;378;48.844;9.156;2024-03-23T09:47:53;7.40;99.90
790;DHT22;378;48.844;9.156;2024-03-23T09:50:20;7.50;99.90
790;DHT22;378;48.844;9.156;2024-03-23T09:52:46;7.60;99.90
790;DHT22;378;48.844;9.156;2024-03-23T09:55:12;7.80;99.90
790;DHT22;378;48.844;9.156;2024-03-23T09:57:40;8.00;99.90
790;DHT22;378;48.844;9.156;2024-03-23T10:00:06;8.10;99.90
790;DHT22;378;48.844;9.156;2024-03-23T10:02:34;8.10;99.90
790;DHT22;378;48.844;9.156;2024-03-23T10:05:00;8.30;99.90
790;DHT22;378;48.844;9.156;2024-03-23T10:07:26;8.40;99.90
790;DHT22;378;48.844;9.156;2024-03-23T10:09:55;8.50;99.90
790;DHT22;378;48.844;9.156;2024-03-23T10:12:22;8.60;99.90
790;DHT22;378;48.844;9.156;2024-03-23T10:14:49;8.70;99.90
790;DHT22;378;48.844;9.156;2024-03-23T10:17:19;8.80;99.90
790;DHT22;378;48.844;9.156;2024-03-23T10:19:46;8.90;99.90
790;DHT22;378;48.844;9.156;2024-03-23T10:22:20;9.00;99.90
790;DHT22;378;48.844;9.156;2024-03-23T10:24:47;8.90;99.90
790;DHT22;378;48.844;9.156;2024-03-23T10:27:20;8.80;99.90
790;DHT22;378;48.844;9.156;2024-03-23T10:29:47;9.00;99.90
790;DHT22;378;48.844;9.156;2024-03-23T10:32:14;9.20;99.90
790;DHT22;378;48.844;9.156;2024-03-23T10:34:41;9.30;99.90
790;DHT22;378;48.844;9.156;2024-03-23T10:37:07;9.30;99.90
790;DHT22;378;48.844;9.156;2024-03-23T10:39:35;9.40;99.90
790;DHT22;378;48.844;9.156;2024-03-23T10:42:02;9.40;99.90
790;DHT22;378;48.844;9.156;2024-03-23T10:44:29;9.40;99.90
790;DHT22;378;48.844;9.156;2024-03-23T10:47:03;9.30;99.90
790;DHT22;378;48.844;9.156;2024-03-23T10:49:30;9.30;99.90
790;DHT22;378;48.844;9.156;2024-03-23T10:52:04;8.80;99.90
790;DHT22;378;48.844;9.156;2024-03-23T10:54:32;8.10;99.90
790;DHT22;378;48.844;9.156;2024-03-23T10:57:04;7.40;99.90
790;DHT22;378;48.844;9.156;2024-03-23T10:59:31;6.90;99.90
790;DHT22;378;48.844;9.156;2024-03-23T11:01:59;6.60;99.90
790;DHT22;378;48.844;9.156;2024-03-23T11:04:30;6.20;99.90
790;DHT22;378;48.844;9.156;2024-03-23T11:06:57;5.80;99.90
790;DHT22;378;48.844;9.156;2024-03-23T11:09:38;5.50;99.90
790;DHT22;378;48.844;9.156;2024-03-23T11:12:28;5.30;99.90
790;DHT22;378;48.844;9.156;2024-03-23T11:15:06;5.20;99.90
790;DHT22;378;48.844;9.156;2024-03-23T11:17:36;5.20;99.90
790;DHT22;378;48.844;9.156;2024-03-23T11:20:04;5.40;99.90
790;DHT22;378;48.844;9.156;2024-03-23T11:22:49;5.50;99.90
790;DHT22;378;48.844;9.156;2024-03-23T11:25:24;5.50;99.90
790;DHT22;378;48.844;9.156;2024-03-23T11:27:51;5.70;99.90
790;DHT22;378;48.844;9.156;2024-03-23T11:30:24;6.00;99.90
790;DHT22;378;48.844;9.156;2024-03-23T11:32:59;6.10;99.90
790;DHT22;378;48.844;9.156;2024-03-23T11:35:37;6.20;99.90
790;DHT22;378;48.844;9.156;2024-03-23T11:38:14;6.40;99.90
790;DHT22;378;48.844;9.156;2024-03-23T11:40:43;6.60;99.90
790;DHT22;378;48.844;9.156;2024-03-23T11:43:11;6.80;99.90
790;DHT22;378;48.844;9.156;2024-03-23T11:48:18;6.70;99.90
790;DHT22;378;48.844;9.156;2024-03-23T11:50:45;6.60;99.90
790;DHT22;378;48.844;9.156;2024-03-23T11:55:46;6.60;99.90
790;DHT22;378;48.844;9.156;2024-03-23T11:58:13;6.60;99.90
790;DHT22;378;48.844;9.156;2024-03-23T12:00:40;6.70;99.90
790;DHT22;378;48.844;9.156;2024-03-23T12:03:06;6.70;99.90
790;DHT22;378;48.844;9.156;2024-03-23T12:05:33;6.80;99.90
790;DHT22;378;48.844;9.156;2024-03-23T12:08:22;6.80;99.90
790;DHT22;378;48.844;9.156;2024-03-23T12:10:52;6.90;99.90
790;DHT22;378;48.844;9.156;2024-03-23T12:13:22;6.60;99.90
790;DHT22;378;48.844;9.156;2024-03-23T12:15:51;6.60;99.90
790;DHT22;378;48.844;9.156;2024-03-23T12:18:17;6.60;99.90
790;DHT22;378;48.844;9.156;2024-03-23T12:20:43;6.70;99.90
790;DHT22;378;48.844;9.156;2024-03-23T12:23:11;7.00;99.90
790;DHT22;378;48.844;9.156;2024-03-23T12:25:40;7.10;99.90
790;DHT22;378;48.844;9.156;2024-03-23T12:28:06;7.30;99.90
790;DHT22;378;48.844;9.156;2024-03-23T12:30:39;7.50;99.90
790;DHT22;378;48.844;9.156;2024-03-23T12:33:05;7.80;99.90
790;DHT22;378;48.844;9.156;2024-03-23T12:35:31;8.00;99.90
790;DHT22;378;48.844;9.156;2024-03-23T12:37:58;8.10;99.90
790;DHT22;378;48.844;9.156;2024-03-23T12:40:23;8.10;99.90
790;DHT22;378;48.844;9.156;2024-03-23T12:42:49;8.10;99.90
790;DHT22;378;48.844;9.156;2024-03-23T12:45:15;8.20;99.90
790;DHT22;378;48.844;9.156;2024-03-23T12:47:41;8.10;99.90
790;DHT22;378;48.844;9.156;2024-03-23T12:50:07;8.10;99.90
790;DHT22;378;48.844;9.156;2024-03-23T12:52:33;8.10;99.90
790;DHT22;378;48.844;9.156;2024-03-23T12:54:59;8.20;99.90
790;DHT22;378;48.844;9.156;2024-03-23T12:57:26;8.30;99.90
790;DHT22;378;48.844;9.156;2024-03-23T12:59:52;8.10;99.90
790;DHT22;378;48.844;9.156;2024-03-23T13:02:19;8.30;99.90
790;DHT22;378;48.844;9.156;2024-03-23T13:04:54;8.40;99.90
790;DHT22;378;48.844;9.156;2024-03-23T13:07:21;8.50;99.90
790;DHT22;378;48.844;9.156;2024-03-23T13:09:50;8.40;99.90
790;DHT22;378;48.844;9.156;2024-03-23T13:12:16;8.40;99.90
790;DHT22;378;48.844;9.156;2024-03-23T13:14:46;8.50;99.90
790;DHT22;378;48.844;9.156;2024-03-23T13:17:12;8.70;99.90
790;DHT22;378;48.844;9.156;2024-03-23T13:19:38;8.70;99.90
790;DHT22;378;48.844;9.156;2024-03-23T13:22:05;8.60;99.90
790;DHT22;378;48.844;9.156;2024-03-23T13:24:31;8.60;99.90
790;DHT22;378;48.844;9.156;2024-03-23T13:26:58;8.70;99.90
790;DHT22;378;48.844;9.156;2024-03-23T13:29:24;9.10;99.90
790;DHT22;378;48.844;9.156;2024-03-23T13:31:51;8.80;99.90
790;DHT22;378;48.844;9.156;2024-03-23T13:36:59;8.80;99.90
790;DHT22;378;48.844;9.156;2024-03-23T13:39:29;9.00;99.90
790;DHT22;378;48.844;9.156;2024-03-23T13:41:56;9.10;99.90
790;DHT22;378;48.844;9.156;2024-03-23T13:44:22;9.20;99.90
790;DHT22;378;48.844;9.156;2024-03-23T13:46:48;9.40;99.90
790;DHT22;378;48.844;9.156;2024-03-23T13:49:28;9.70;99.90
790;DHT22;378;48.844;9.156;2024-03-23T13:51:55;9.90;99.90
790;DHT22;378;48.844;9.156;2024-03-23T13:54:21;10.10;99.90
790;DHT22;378;48.844;9.156;2024-03-23T13:57:05;10.10;99.90
790;DHT22;378;48.844;9.156;2024-03-23T13:59:31;9.40;99.90
790;DHT22;378;48.844;9.156;2024-03-23T14:01:57;8.70;99.90
790;DHT22;378;48.844;9.156;2024-03-23T14:04:23;8.00;99.90
790;DHT22;378;48.844;9.156;2024-03-23T14:06:50;7.10;99.90
790;DHT22;378;48.844;9.156;2024-03-23T14:09:16;6.70;99.90
790;DHT22;378;48.844;9.156;2024-03-23T14:11:47;6.20;99.90
790;DHT22;378;48.844;9.156;2024-03-23T14:14:13;5.80;99.90
790;DHT22;378;48.844;9.156;2024-03-23T14:17:28;5.50;99.90
790;DHT22;378;48.844;9.156;2024-03-23T14:19:41;5.20;99.90
790;DHT22;378;48.844;9.156;2024-03-23T14:22:07;5.00;99.90
790;DHT22;378;48.844;9.156;2024-03-23T14:24:33;4.70;99.90
790;DHT22;378;48.844;9.156;2024-03-23T14:26:59;4.60;99.90
790;DHT22;378;48.844;9.156;2024-03-23T14:29:37;4.60;99.90
790;DHT22;378;48.844;9.156;2024-03-23T14:32:03;4.70;99.90
790;DHT22;378;48.844;9.156;2024-03-23T14:34:34;5.00;99.90
790;DHT22;378;48.844;9.156;2024-03-23T14:37:03;5.30;99.90
790;DHT22;378;48.844;9.156;2024-03-23T14:39:29;5.50;99.90
790;DHT22;378;48.844;9.156;2024-03-23T14:41:55;5.70;99.90
790;DHT22;378;48.844;9.156;2024-03-23T14:44:22;6.00;99.90
790;DHT22;378;48.844;9.156;2024-03-23T14:46:49;6.20;99.90
790;DHT22;378;48.844;9.156;2024-03-23T14:49:15;6.30;99.90
790;DHT22;378;48.844;9.156;2024-03-23T14:55:00;6.40;99.90
790;DHT22;378;48.844;9.156;2024-03-23T14:57:26;6.20;99.90
790;DHT22;378;48.844;9.156;2024-03-23T14:59:54;6.10;99.90
790;DHT22;378;48.844;9.156;2024-03-23T15:02:20;6.20;99.90
790;DHT22;378;48.844;9.156;2024-03-23T15:04:46;6.20;99.90
790;DHT22;378;48.844;9.156;2024-03-23T15:07:12;6.20;99.90
790;DHT22;378;48.844;9.156;2024-03-23T15:09:38;6.30;99.90
790;DHT22;378;48.844;9.156;2024-03-23T15:12:04;6.40;99.90
790;DHT22;378;48.844;9.156;2024-03-23T15:14:30;6.30;99.90
790;DHT22;378;48.844;9.156;2024-03-23T15:16:55;6.30;99.90
790;DHT22;378;48.844;9.156;2024-03-23T15:19:21;6.30;99.90
790;DHT22;378;48.844;9.156;2024-03-23T15:21:47;6.30;99.90
790;DHT22;378;48.844;9.156;2024-03-23T15:24:13;6.30;99.90
790;DHT22;378;48.844;9.156;2024-03-23T15:26:39;6.30;99.90
790;DHT22;378;48.844;9.156;2024-03-23T15:29:05;6.20;99.90
790;DHT22;378;48.844;9.156;2024-03-23T15:31:42;6.10;99.90
790;DHT22;378;48.844;9.156;2024-03-23T15:34:08;6.10;99.90
790;DHT22;378;48.844;9.156;2024-03-23T15:36:37;6.00;99.90
790;DHT22;378;48.844;9.156;2024-03-23T15:39:05;6.10;99.90
790;DHT22;378;48.844;9.156;2024-03-23T15:41:31;6.10;99.90
790;DHT22;378;48.844;9.156;2024-03-23T15:43:57;6.20;99.90
790;DHT22;378;48.844;9.156;2024-03-23T15:46:23;6.20;99.90
790;DHT22;378;48.844;9.156;2024-03-23T15:48:48;6.40;99.90
790;DHT22;378;48.844;9.156;2024-03-23T15:51:16;6.50;99.90
790;DHT22;378;48.844;9.156;2024-03-23T15:53:43;6.50;99.90
790;DHT22;378;48.844;9.156;2024-03-23T15:56:09;6.60;99.90
790;DHT22;378;48.844;9.156;2024-03-23T15:58:36;6.70;99.90
790;DHT22;378;48.844;9.156;2024-03-23T16:01:04;6.80;99.90
790;DHT22;378;48.844;9.156;2024-03-23T16:03:31;6.80;99.90
790;DHT22;378;48.844;9.156;2024-03-23T16:06:01;6.90;99.90
790;DHT22;378;48.844;9.156;2024-03-23T16:08:27;7.10;99.90
790;DHT22;378;48.844;9.156;2024-03-23T16:10:53;7.10;99.90
790;DHT22;378;48.844;9.156;2024-03-23T16:13:20;7.00;99.90
790;DHT22;378;48.844;9.156;2024-03-23T16:16:02;7.10;99.90
790;DHT22;378;48.844;9.156;2024-03-23T16:18:33;7.10;99.90
790;DHT22;378;48.844;9.156;2024-03-23T16:21:02;7.10;99.90
790;DHT22;378;48.844;9.156;2024-03-23T16:23:28;7.00;99.90
790;DHT22;378;48.844;9.156;2024-03-23T16:25:55;7.00;99.90
790;DHT22;378;48.844;9.156;2024-03-23T16:28:37;7.10;99.90
790;DHT22;378;48.844;9.156;2024-03-23T16:31:08;7.00;99.90
790;DHT22;378;48.844;9.156;2024-03-23T16:33:35;7.10;99.90
790;DHT22;378;48.844;9.156;2024-03-23T16:36:06;7.10;99.90
790;DHT22;378;48.844;9.156;2024-03-23T16:38:36;7.10;99.90
790;DHT22;378;48.844;9.156;2024-03-23T16:41:03;7.00;99.90
790;DHT22;378;48.844;9.156;2024-03-23T16:43:33;7.00;99.90
790;DHT22;378;48.844;9.156;2024-03-23T16:46:03;6.80;99.90
790;DHT22;378;48.844;9.156;2024-03-23T16:48:29;6.20;99.90
790;DHT22;378;48.844;9.156;2024-03-23T16:50:58;5.90;99.90
790;DHT22;378;48.844;9.156;2024-03-23T16:53:25;5.50;99.90
790;DHT22;378;48.844;9.156;2024-03-23T16:55:55;5.20;99.90
790;DHT22;378;48.844;9.156;2024-03-23T16:58:22;5.00;99.90
790;DHT22;378;48.844;9.156;2024-03-23T17:00:47;5.00;99.90
790;DHT22;378;48.844;9.156;2024-03-23T17:03:14;5.00;99.90
790;DHT22;378;48.844;9.156;2024-03-23T17:05:40;5.00;99.90
790;DHT22;378;48.844;9.156;2024-03-23T17:08:06;5.10;99.90
790;DHT22;378;48.844;9.156;2024-03-23T17:10:34;5.10;99.90
790;DHT22;378;48.844;9.156;2024-03-23T17:13:03;5.20;99.90
790;DHT22;378;48.844;9.156;2024-03-23T17:15:33;5.10;99.90
790;DHT22;378;48.844;9.156;2024-03-23T17:17:59;5.10;99.90
790;DHT22;378;48.844;9.156;2024-03-23T17:20:25;5.10;99.90
790;DHT22;378;48.844;9.156;2024-03-23T17:22:54;5.10;99.90
790;DHT22;378;48.844;9.156;2024-03-23T17:25:21;5.00;99.90
790;DHT22;378;48.844;9.156;2024-03-23T17:27:47;4.90;99.90
790;DHT22;378;48.844;9.156;2024-03-23T17:30:14;4.90;99.90
790;DHT22;378;48.844;9.156;2024-03-23T17:32:44;5.00;99.90
790;DHT22;378;48.844;9.156;2024-03-23T17:35:13;5.00;99.90
790;DHT22;378;48.844;9.156;2024-03-23T17:37:39;5.00;99.90
790;DHT22;378;48.844;9.156;2024-03-23T17:40:06;5.00;99.90
790;DHT22;378;48.844;9.156;2024-03-23T17:42:37;4.90;99.90
790;DHT22;378;48.844;9.156;2024-03-23T17:45:04;4.70;99.90
790;DHT22;378;48.844;9.156;2024-03-23T17:47:38;4.70;99.90
790;DHT22;378;48.844;9.156;2024-03-23T17:50:05;4.50;99.90
790;DHT22;378;48.844;9.156;2024-03-23T17:52:34;4.40;99.90
790;DHT22;378;48.844;9.156;2024-03-23T17:55:01;4.20;99.90
790;DHT22;378;48.844;9.156;2024-03-23T17:57:27;4.00;99.90
790;DHT22;378;48.844;9.156;2024-03-23T17:59:54;3.70;99.90